首页
METAR-TAF:

METAR-TAF

机场 :

Greenwood County Airport

Greenwood, 南卡罗来纳州, 美国

纬度: 34-14-50N, 经度: 082-09-17W, 海拔: 192米

当前天气观测

该预报发布于1小时和10分钟前的23:56 UTC
风速8节,风向东北
温度 4°C
湿度 100%
气压 1020 hPa
能見度: 6.4公里
多云层高于600英尺
多云层高于1000英尺
阴天层高于3300英尺
雨, 轻雾

METAR: KGRD 122356Z AUTO 04008KT 4SM RA BR BKN006 BKN010 OVC033 04/04 A3013 RMK AO2 SLP205 P0024 60086 T00440044 10050 20044 50000

时间: 20:06 (01:06 UTC)


TAF: 丢失

超过4000个机场的气象观测和天气预报(METAR&TAF报告)。

可查询的气象台以黄色和红色小点在地图上表示。

将鼠标移到小点上方,可查看气象台名称。

然后点击查看天气观测和预报。

如需切换地图:点击带黑十字的绿色按钮放大地图;点击带横线的绿色按钮缩小地图;或者点击绿色箭头查看邻近地区的地图。


METAR-TAF: